createdAt,value
2022-09-23T00:01:11.407Z,18.27
2022-09-23T00:03:39.465Z,16.40
2022-09-23T00:06:10.901Z,15.63
2022-09-23T00:08:37.890Z,15.57
2022-09-23T00:11:09.863Z,16.27
2022-09-23T00:13:37.660Z,15.95
2022-09-23T00:16:05.185Z,17.63
2022-09-23T00:18:32.024Z,17.70
2022-09-23T00:21:02.922Z,15.35
2022-09-23T00:23:29.427Z,14.45
2022-09-23T00:26:00.547Z,15.68
2022-09-23T00:28:27.218Z,17.05
2022-09-23T00:30:53.784Z,13.85
2022-09-23T00:33:20.350Z,15.60
2022-09-23T00:35:47.666Z,19.70
2022-09-23T00:38:14.370Z,16.23
2022-09-23T00:40:45.912Z,16.33
2022-09-23T00:43:14.750Z,16.10
2022-09-23T00:45:43.331Z,19.05
2022-09-23T00:48:14.501Z,16.15
2022-09-23T00:50:43.868Z,15.93
2022-09-23T00:53:12.926Z,15.77
2022-09-23T00:55:46.750Z,16.73
2022-09-23T00:58:17.682Z,15.15
2022-09-23T01:00:46.372Z,20.20
2022-09-23T01:03:13.683Z,19.40
2022-09-23T01:05:40.239Z,18.92
2022-09-23T01:08:09.202Z,17.10
2022-09-23T01:11:01.042Z,17.13
2022-09-23T01:13:36.554Z,19.63
2022-09-23T01:16:07.830Z,16.88
2022-09-23T01:18:48.802Z,17.42
2022-09-23T01:21:39.037Z,17.30
2022-09-23T01:24:14.941Z,18.77
2022-09-23T01:27:09.001Z,17.15
2022-09-23T01:30:07.417Z,17.45
2022-09-23T01:32:56.240Z,19.15
2022-09-23T01:35:43.001Z,17.40
2022-09-23T01:38:28.319Z,18.20
2022-09-23T01:41:03.446Z,17.95
2022-09-23T01:43:41.887Z,16.98
2022-09-23T01:46:18.031Z,18.83
2022-09-23T01:48:53.301Z,18.55
2022-09-23T01:51:26.811Z,18.85
2022-09-23T01:54:15.783Z,18.02
2022-09-23T01:56:51.763Z,18.63
2022-09-23T01:59:40.960Z,20.27
2022-09-23T02:02:21.861Z,20.92
2022-09-23T02:04:54.075Z,21.27
2022-09-23T02:08:03.103Z,18.38
2022-09-23T02:10:36.233Z,17.25
2022-09-23T02:13:09.584Z,18.10
2022-09-23T02:15:41.862Z,16.70
2022-09-23T02:18:16.975Z,20.50
2022-09-23T02:20:43.977Z,17.25
2022-09-23T02:23:23.401Z,16.80
2022-09-23T02:26:19.300Z,19.27
2022-09-23T02:29:12.448Z,19.48
2022-09-23T02:32:15.082Z,17.90
2022-09-23T02:34:56.050Z,17.30
2022-09-23T02:37:27.055Z,16.92
2022-09-23T02:40:13.759Z,17.13
2022-09-23T02:42:48.203Z,18.10
2022-09-23T02:45:14.811Z,17.73
2022-09-23T02:47:43.959Z,17.88
2022-09-23T02:50:10.941Z,17.73
2022-09-23T02:52:38.637Z,18.65
2022-09-23T02:55:06.973Z,18.52
2022-09-23T02:57:34.055Z,17.35
2022-09-23T03:00:02.194Z,19.45
2022-09-23T03:02:50.855Z,17.17
2022-09-23T03:05:25.239Z,20.02
2022-09-23T03:08:12.846Z,20.15
2022-09-23T03:10:54.451Z,21.38
2022-09-23T03:13:47.020Z,17.48
2022-09-23T03:16:25.360Z,17.23
2022-09-23T03:19:01.561Z,19.88
2022-09-23T03:21:32.506Z,20.08
2022-09-23T03:24:00.858Z,17.20
2022-09-23T03:26:33.645Z,19.08
2022-09-23T03:29:03.765Z,20.13
2022-09-23T03:31:31.704Z,18.75
2022-09-23T03:34:00.535Z,18.33
2022-09-23T03:36:49.598Z,17.55
2022-09-23T03:39:26.365Z,17.73
2022-09-23T03:41:55.687Z,18.52
2022-09-23T03:44:22.164Z,17.80
2022-09-23T03:46:51.495Z,18.02
2022-09-23T03:49:28.854Z,19.10
2022-09-23T03:51:55.746Z,18.02
2022-09-23T03:54:22.306Z,17.58
2022-09-23T03:56:48.950Z,17.13
2022-09-23T03:59:16.067Z,17.55
2022-09-23T04:01:43.535Z,17.55
2022-09-23T04:04:10.398Z,18.63
2022-09-23T04:06:36.882Z,17.83
2022-09-23T04:09:03.717Z,17.13
2022-09-23T04:11:30.223Z,17.50
2022-09-23T04:13:56.764Z,21.05
2022-09-23T04:16:23.471Z,21.40
2022-09-23T04:18:50.006Z,18.02
2022-09-23T04:21:16.462Z,19.08
2022-09-23T04:23:43.082Z,22.67
2022-09-23T04:26:09.871Z,18.13
2022-09-23T04:28:36.357Z,19.02
2022-09-23T04:31:06.865Z,18.92
2022-09-23T04:33:33.467Z,18.40
2022-09-23T04:36:00.092Z,21.05
2022-09-23T04:38:26.935Z,19.02
2022-09-23T04:40:53.514Z,17.05
2022-09-23T04:43:23.295Z,17.73
2022-09-23T04:46:04.781Z,19.05
2022-09-23T04:48:31.778Z,18.42
2022-09-23T04:51:03.251Z,18.02
2022-09-23T04:53:29.849Z,19.17
2022-09-23T04:56:11.622Z,17.65
2022-09-23T04:58:38.790Z,18.48
2022-09-23T05:01:13.409Z,17.13
2022-09-23T05:03:40.284Z,18.75
2022-09-23T05:06:07.705Z,17.40
2022-09-23T05:08:34.943Z,18.30
2022-09-23T05:11:04.743Z,18.27
2022-09-23T05:13:32.538Z,18.05
2022-09-23T05:16:02.770Z,21.95
2022-09-23T05:18:36.219Z,18.17
2022-09-23T05:21:03.394Z,17.83
2022-09-23T05:23:30.482Z,17.77
2022-09-23T05:26:03.254Z,19.85
2022-09-23T05:28:32.307Z,18.03
2022-09-23T05:31:04.252Z,19.02
2022-09-23T05:33:31.954Z,18.65
2022-09-23T05:35:58.686Z,18.92
2022-09-23T05:38:25.566Z,18.98
2022-09-23T05:40:59.435Z,20.05
2022-09-23T05:43:26.355Z,19.10
2022-09-23T05:46:08.027Z,19.00
2022-09-23T05:48:35.761Z,18.75
2022-09-23T05:51:03.118Z,18.42
2022-09-23T05:53:30.444Z,17.83
2022-09-23T05:55:57.520Z,18.05
2022-09-23T05:58:24.195Z,19.50
2022-09-23T06:00:51.138Z,16.60
2022-09-23T06:03:19.702Z,16.48
2022-09-23T06:05:46.785Z,19.02
2022-09-23T06:08:13.302Z,18.08
2022-09-23T06:10:41.768Z,18.58
2022-09-23T06:13:08.838Z,16.83
2022-09-23T06:15:36.046Z,17.50
2022-09-23T06:18:02.842Z,16.92
2022-09-23T06:20:29.505Z,20.33
2022-09-23T06:22:58.022Z,19.10
2022-09-23T06:25:24.506Z,16.55
2022-09-23T06:27:54.923Z,20.30
2022-09-23T06:30:22.970Z,18.55
2022-09-23T06:32:51.973Z,16.42
2022-09-23T06:35:26.214Z,19.55
2022-09-23T06:37:54.891Z,16.42
2022-09-23T06:40:22.519Z,17.27
2022-09-23T06:42:56.262Z,17.33
2022-09-23T06:45:23.415Z,17.17
2022-09-23T06:47:55.983Z,16.02
2022-09-23T06:50:24.053Z,15.75
2022-09-23T06:52:56.019Z,17.50
2022-09-23T06:55:27.114Z,16.85
2022-09-23T06:57:54.889Z,14.57
2022-09-23T07:00:21.692Z,16.85
2022-09-23T07:02:48.856Z,14.32
2022-09-23T07:05:18.332Z,15.13
2022-09-23T07:07:44.982Z,14.98
2022-09-23T07:10:12.176Z,17.23
2022-09-23T07:12:38.677Z,14.75
2022-09-23T07:15:05.501Z,121.97
2022-09-23T07:17:31.985Z,89.40
2022-09-23T07:19:59.234Z,15.63
2022-09-23T07:22:26.355Z,17.15
2022-09-23T07:24:56.354Z,16.05
2022-09-23T07:27:27.032Z,15.73
2022-09-23T07:29:54.756Z,15.82
2022-09-23T07:32:22.062Z,13.45
2022-09-23T07:34:48.870Z,17.30
2022-09-23T07:37:16.457Z,16.30
2022-09-23T07:39:43.917Z,15.70
2022-09-23T07:42:11.823Z,14.07
2022-09-23T07:44:38.314Z,14.40
2022-09-23T07:47:06.090Z,13.43
2022-09-23T07:49:35.335Z,14.23
2022-09-23T07:52:02.065Z,21.58
2022-09-23T07:54:29.735Z,14.95
2022-09-23T07:56:56.910Z,15.55
2022-09-23T07:59:23.388Z,14.93
2022-09-23T08:01:52.581Z,15.18
2022-09-23T08:04:22.938Z,15.25
2022-09-23T08:06:51.812Z,12.82
2022-09-23T08:09:20.216Z,13.00
2022-09-23T08:11:46.857Z,15.68
2022-09-23T08:14:15.323Z,13.30
2022-09-23T08:16:42.199Z,15.43
2022-09-23T08:19:08.690Z,12.45
2022-09-23T08:21:35.174Z,14.00
2022-09-23T08:24:02.207Z,11.65
2022-09-23T08:26:28.761Z,13.80
2022-09-23T08:28:56.402Z,14.77
2022-09-23T08:31:23.678Z,13.23
2022-09-23T08:33:56.818Z,12.38
2022-09-23T08:36:24.231Z,14.68
2022-09-23T08:38:51.146Z,14.60
2022-09-23T08:41:38.689Z,13.60
2022-09-23T08:44:13.720Z,14.20
2022-09-23T08:46:46.358Z,14.30
2022-09-23T08:49:17.330Z,11.13
2022-09-23T08:51:46.273Z,11.98
2022-09-23T08:54:13.953Z,12.15
2022-09-23T08:56:43.461Z,12.05
2022-09-23T08:59:32.298Z,11.27
2022-09-23T09:02:09.520Z,11.73
2022-09-23T09:04:41.053Z,11.95
2022-09-23T09:07:34.610Z,14.55
2022-09-23T09:10:00.177Z,14.48
2022-09-23T09:12:41.779Z,16.65
2022-09-23T09:15:15.782Z,15.48
2022-09-23T09:18:14.190Z,12.82
2022-09-23T09:21:02.651Z,12.48
2022-09-23T09:23:29.089Z,12.50
2022-09-23T09:25:59.338Z,13.52
2022-09-23T09:28:48.884Z,13.23
2022-09-23T09:31:33.616Z,11.95
2022-09-23T09:34:04.941Z,11.15
2022-09-23T09:36:48.999Z,13.07
2022-09-23T09:39:16.094Z,10.80
2022-09-23T09:41:46.837Z,12.95
2022-09-23T09:44:24.134Z,12.38
2022-09-23T09:47:09.921Z,12.60
2022-09-23T09:49:43.846Z,10.98
2022-09-23T09:52:21.132Z,10.70
2022-09-23T09:54:49.552Z,10.43
2022-09-23T09:57:19.519Z,12.27
2022-09-23T09:59:45.977Z,13.95
2022-09-23T10:02:34.227Z,11.57
2022-09-23T10:05:03.681Z,11.63
2022-09-23T10:07:31.598Z,12.18
2022-09-23T10:10:06.121Z,11.98
2022-09-23T10:12:46.952Z,8.70
2022-09-23T10:15:31.196Z,10.73
2022-09-23T10:18:01.903Z,10.23
2022-09-23T10:20:36.110Z,10.68
2022-09-23T10:23:07.930Z,12.68
2022-09-23T10:25:34.934Z,16.13
2022-09-23T10:28:47.365Z,11.98
2022-09-23T10:31:25.842Z,17.73
2022-09-23T10:33:54.619Z,11.88
2022-09-23T10:36:21.636Z,14.95
2022-09-23T10:38:50.938Z,16.42
2022-09-23T10:41:44.210Z,18.10
2022-09-23T10:44:42.120Z,13.53
2022-09-23T10:47:34.867Z,12.95
2022-09-23T10:50:34.659Z,11.50
2022-09-23T10:53:12.678Z,20.35
2022-09-23T10:55:44.911Z,8.73
2022-09-23T10:58:28.753Z,12.13
2022-09-23T11:01:07.438Z,16.85
2022-09-23T11:03:56.770Z,14.45
2022-09-23T11:06:45.586Z,12.70
2022-09-23T11:09:31.589Z,13.02
2022-09-23T11:12:08.674Z,16.40
2022-09-23T11:14:44.193Z,12.15
2022-09-23T11:17:38.403Z,10.93
2022-09-23T11:22:58.923Z,13.07
2022-09-23T11:26:16.023Z,16.48
2022-09-23T11:29:06.814Z,13.57
2022-09-23T11:32:05.671Z,16.40
2022-09-23T11:35:00.074Z,10.23
2022-09-23T11:37:30.615Z,14.18
2022-09-23T11:40:03.902Z,11.30
2022-09-23T11:42:36.412Z,10.82
2022-09-23T11:45:16.840Z,12.82
2022-09-23T11:47:52.733Z,16.60
2022-09-23T11:50:25.716Z,16.48
2022-09-23T11:52:58.647Z,15.30
2022-09-23T11:55:29.574Z,15.50
2022-09-23T11:58:03.163Z,12.80
2022-09-23T12:03:18.689Z,13.52
2022-09-23T12:05:48.381Z,12.82
2022-09-23T12:08:25.398Z,14.07
2022-09-23T12:11:06.475Z,14.90
2022-09-23T12:13:39.493Z,14.82
2022-09-23T12:16:37.697Z,12.20
2022-09-23T12:19:22.554Z,11.05
2022-09-23T12:22:37.201Z,11.95
2022-09-23T12:25:31.670Z,11.82
2022-09-23T12:28:02.986Z,10.60
2022-09-23T12:30:31.613Z,16.05
2022-09-23T12:33:14.729Z,11.02
2022-09-23T12:35:44.309Z,12.00
2022-09-23T12:38:34.434Z,13.73
2022-09-23T12:41:00.958Z,13.48
2022-09-23T12:43:35.461Z,15.98
2022-09-23T12:46:19.582Z,14.95
2022-09-23T12:48:48.190Z,12.88
2022-09-23T12:51:16.973Z,11.38
2022-09-23T12:53:50.617Z,14.93
2022-09-23T12:58:47.286Z,15.60
2022-09-23T13:01:20.591Z,13.65
2022-09-23T13:04:08.759Z,12.90
2022-09-23T13:06:40.664Z,13.38
2022-09-23T13:09:12.290Z,15.40
2022-09-23T13:11:41.389Z,16.60
2022-09-23T13:14:08.114Z,14.18
2022-09-23T13:16:38.064Z,12.63
2022-09-23T13:19:06.373Z,20.10
2022-09-23T13:21:45.753Z,15.98
2022-09-23T13:24:31.025Z,14.25
2022-09-23T13:27:06.055Z,17.42
2022-09-23T13:29:39.042Z,12.82
2022-09-23T13:32:12.365Z,12.70
2022-09-23T13:34:39.835Z,15.40
2022-09-23T13:37:23.191Z,13.73
2022-09-23T13:39:50.083Z,15.98
2022-09-23T13:42:29.199Z,13.25
2022-09-23T13:44:57.628Z,16.50
2022-09-23T13:47:25.865Z,14.73
2022-09-23T13:49:53.000Z,13.07
2022-09-23T13:52:29.743Z,12.40
2022-09-23T13:54:56.210Z,11.82
2022-09-23T13:57:27.299Z,13.40
2022-09-23T13:59:53.754Z,12.13
2022-09-23T14:02:20.312Z,16.98
2022-09-23T14:04:46.801Z,13.68
2022-09-23T14:07:14.414Z,10.60
2022-09-23T14:09:46.050Z,13.68
2022-09-23T14:12:13.003Z,15.00
2022-09-23T14:14:40.836Z,17.27
2022-09-23T14:17:08.452Z,14.35
2022-09-23T14:19:35.860Z,22.00
2022-09-23T14:22:02.547Z,13.65
2022-09-23T14:24:28.958Z,12.27
2022-09-23T14:26:56.666Z,12.32
2022-09-23T14:29:29.575Z,15.50
2022-09-23T14:32:03.478Z,13.30
2022-09-23T14:34:49.764Z,15.32
2022-09-23T14:37:42.385Z,18.25
2022-09-23T14:40:15.679Z,17.25
2022-09-23T14:42:45.987Z,17.95
2022-09-23T14:45:20.881Z,14.55
2022-09-23T14:47:49.978Z,13.00
2022-09-23T14:50:47.049Z,13.82
2022-09-23T14:53:22.725Z,17.02
2022-09-23T14:55:52.786Z,14.98
2022-09-23T14:58:21.411Z,12.02
2022-09-23T15:00:58.459Z,14.18
2022-09-23T15:03:25.325Z,10.55
2022-09-23T15:05:57.892Z,16.75
2022-09-23T15:08:27.081Z,14.60
2022-09-23T15:10:53.987Z,15.95
2022-09-23T15:13:28.800Z,11.07
2022-09-23T15:15:56.686Z,14.38
2022-09-23T15:18:25.369Z,13.02
2022-09-23T15:20:54.175Z,15.07
2022-09-23T15:23:34.374Z,14.18
2022-09-23T15:26:10.167Z,13.80
2022-09-23T15:28:36.627Z,13.95
2022-09-23T15:31:05.685Z,9.98
2022-09-23T15:33:32.557Z,12.85
2022-09-23T15:35:59.007Z,10.90
2022-09-23T15:38:27.186Z,15.13
2022-09-23T15:40:54.223Z,9.82
2022-09-23T15:43:23.222Z,11.35
2022-09-23T15:45:52.961Z,10.45
2022-09-23T15:48:23.273Z,13.63
2022-09-23T15:50:50.922Z,11.23
2022-09-23T15:53:26.097Z,14.38
2022-09-23T15:55:52.691Z,14.85
2022-09-23T15:58:20.443Z,12.02
2022-09-23T16:00:55.959Z,12.80
2022-09-23T16:03:28.222Z,11.50
2022-09-23T16:06:00.967Z,14.50
2022-09-23T16:08:28.142Z,12.77
2022-09-23T16:10:55.234Z,10.52
2022-09-23T16:13:21.921Z,12.02
2022-09-23T16:15:48.490Z,12.98
2022-09-23T16:18:15.022Z,11.38
2022-09-23T16:20:44.420Z,11.82
2022-09-23T16:23:33.887Z,9.65
2022-09-23T16:26:17.165Z,11.93
2022-09-23T16:28:44.776Z,12.32
2022-09-23T16:31:11.838Z,12.82
2022-09-23T16:33:38.471Z,8.75
2022-09-23T16:36:05.787Z,11.18
2022-09-23T16:38:32.508Z,9.30
2022-09-23T16:41:00.600Z,11.65
2022-09-23T16:43:31.441Z,12.23
2022-09-23T16:45:58.337Z,12.63
2022-09-23T16:48:24.827Z,13.13
2022-09-23T16:50:53.591Z,12.40
2022-09-23T16:53:20.108Z,15.05
2022-09-23T16:55:46.715Z,10.95
2022-09-23T16:58:13.165Z,12.00
2022-09-23T17:00:58.108Z,11.18
2022-09-23T17:03:40.757Z,8.55
2022-09-23T17:06:10.286Z,16.70
2022-09-23T17:08:36.800Z,14.20
2022-09-23T17:11:03.383Z,16.10
2022-09-23T17:13:31.042Z,8.82
2022-09-23T17:15:57.638Z,12.73
2022-09-23T17:18:25.003Z,12.55
2022-09-23T17:21:03.194Z,12.68
2022-09-23T17:23:31.561Z,11.30
2022-09-23T17:25:59.341Z,13.40
2022-09-23T17:28:25.944Z,10.30
2022-09-23T17:31:00.566Z,10.57
2022-09-23T17:33:28.439Z,11.00
2022-09-23T17:35:56.683Z,15.13
2022-09-23T17:38:28.721Z,14.23
2022-09-23T17:40:58.974Z,12.68
2022-09-23T17:43:25.891Z,13.05
2022-09-23T17:45:54.552Z,13.38
2022-09-23T17:48:22.256Z,14.48
2022-09-23T17:50:58.650Z,12.00
2022-09-23T17:53:26.108Z,14.02
2022-09-23T17:56:04.447Z,11.73
2022-09-23T17:58:33.883Z,14.25
2022-09-23T18:01:00.730Z,14.55
2022-09-23T18:03:29.602Z,12.25
2022-09-23T18:06:09.090Z,11.93
2022-09-23T18:08:35.710Z,12.07
2022-09-23T18:11:11.268Z,16.85
2022-09-23T18:13:37.858Z,13.95
2022-09-23T18:16:04.321Z,16.10
2022-09-23T18:18:31.093Z,17.00
2022-09-23T18:21:04.613Z,15.43
2022-09-23T18:23:31.083Z,14.57
2022-09-23T18:25:57.518Z,16.25
2022-09-23T18:28:24.013Z,16.10
2022-09-23T18:30:55.173Z,12.93
2022-09-23T18:33:22.675Z,17.45
2022-09-23T18:35:49.718Z,19.10
2022-09-23T18:38:16.227Z,17.70
2022-09-23T18:40:55.477Z,20.30
2022-09-23T18:43:32.726Z,16.42
2022-09-23T18:46:03.757Z,17.40
2022-09-23T18:48:50.335Z,14.38
2022-09-23T18:51:17.759Z,16.65
2022-09-23T18:53:46.389Z,19.50
2022-09-23T18:56:20.880Z,18.00
2022-09-23T18:58:51.486Z,16.35
2022-09-23T19:01:20.985Z,17.40
2022-09-23T19:03:47.800Z,16.70
2022-09-23T19:06:20.613Z,17.50
2022-09-23T19:08:50.205Z,16.73
2022-09-23T19:11:17.002Z,13.93
2022-09-23T19:13:43.464Z,16.23
2022-09-23T19:16:15.099Z,14.38
2022-09-23T19:18:43.594Z,15.60
2022-09-23T19:21:13.021Z,18.67
2022-09-23T19:23:40.433Z,15.40
2022-09-23T19:26:09.357Z,17.10
2022-09-23T19:28:36.397Z,15.05
2022-09-23T19:31:15.059Z,15.40
2022-09-23T19:33:41.807Z,13.40
2022-09-23T19:36:09.450Z,13.88
2022-09-23T19:38:36.560Z,18.83
2022-09-23T19:41:07.940Z,15.07
2022-09-23T19:43:37.421Z,19.73
2022-09-23T19:46:04.635Z,17.30
2022-09-23T19:48:31.112Z,18.20
2022-09-23T19:50:57.664Z,19.13
2022-09-23T19:53:27.992Z,17.25
2022-09-23T19:55:56.181Z,19.05
2022-09-23T19:58:23.138Z,19.85
2022-09-23T20:00:49.658Z,14.25
2022-09-23T20:03:17.570Z,23.42
2022-09-23T20:05:44.058Z,19.30
2022-09-23T20:08:10.510Z,25.15
2022-09-23T20:10:39.428Z,23.50
2022-09-23T20:13:05.903Z,24.30
2022-09-23T20:15:32.369Z,25.02
2022-09-23T20:17:58.810Z,26.70
2022-09-23T20:20:25.302Z,29.98
2022-09-23T20:22:53.809Z,29.52
2022-09-23T20:25:20.251Z,27.45
2022-09-23T20:27:49.426Z,27.92
2022-09-23T20:30:16.215Z,26.20
2022-09-23T20:32:44.809Z,28.58
2022-09-23T20:35:11.533Z,26.48
2022-09-23T20:37:37.975Z,27.75
2022-09-23T20:40:04.944Z,29.98
2022-09-23T20:42:31.877Z,26.27
2022-09-23T20:44:58.345Z,33.63
2022-09-23T20:47:24.827Z,29.17
2022-09-23T20:49:51.339Z,29.50
2022-09-23T20:52:20.132Z,30.23
2022-09-23T20:54:46.619Z,35.30
2022-09-23T20:57:14.053Z,33.80
2022-09-23T20:59:44.151Z,30.55
2022-09-23T21:02:10.881Z,29.77
2022-09-23T21:04:37.388Z,34.72
2022-09-23T21:07:03.859Z,37.33
2022-09-23T21:09:31.170Z,43.20
2022-09-23T21:11:57.734Z,28.67
2022-09-23T21:14:24.270Z,30.98
2022-09-23T21:16:50.731Z,34.05
2022-09-23T21:19:17.735Z,34.40
2022-09-23T21:21:44.183Z,38.05
2022-09-23T21:24:48.744Z,37.50
2022-09-23T21:26:57.169Z,39.17
2022-09-23T21:29:23.759Z,37.92
2022-09-23T21:31:50.281Z,37.10
2022-09-23T21:34:16.855Z,38.10
2022-09-23T21:36:44.001Z,37.28
2022-09-23T21:39:11.185Z,42.40
2022-09-23T21:41:37.996Z,37.65
2022-09-23T21:44:04.778Z,37.10
2022-09-23T21:46:33.702Z,31.70
2022-09-23T21:49:02.054Z,37.95
2022-09-23T21:51:30.238Z,41.85
2022-09-23T21:53:57.848Z,43.42
2022-09-23T21:56:26.395Z,34.30
2022-09-23T21:58:54.146Z,38.83
2022-09-23T22:01:23.207Z,36.47
2022-09-23T22:03:57.783Z,42.20
2022-09-23T22:06:27.086Z,43.28
2022-09-23T22:08:55.559Z,41.88
2022-09-23T22:11:42.236Z,42.35
2022-09-23T22:14:11.089Z,42.85
2022-09-23T22:16:38.865Z,45.88
2022-09-23T22:19:07.051Z,38.03
2022-09-23T22:21:35.306Z,39.20
2022-09-23T22:24:02.349Z,51.42
2022-09-23T22:26:34.276Z,51.78
2022-09-23T22:29:19.267Z,47.92
2022-09-23T22:32:04.152Z,43.17
2022-09-23T22:34:48.963Z,51.58
2022-09-23T22:37:18.020Z,47.13
2022-09-23T22:39:44.785Z,50.15
2022-09-23T22:42:12.936Z,47.40
2022-09-23T22:44:39.642Z,49.53
2022-09-23T22:47:06.230Z,53.35
2022-09-23T22:49:32.800Z,50.10
2022-09-23T22:51:59.692Z,48.10
2022-09-23T22:54:33.689Z,45.80
2022-09-23T22:57:04.000Z,43.42
2022-09-23T22:59:30.607Z,55.50
2022-09-23T23:01:59.690Z,56.45
2022-09-23T23:04:26.947Z,46.28
2022-09-23T23:06:53.439Z,54.15
2022-09-23T23:09:19.875Z,43.13
2022-09-23T23:11:47.057Z,54.28
2022-09-23T23:14:16.077Z,54.03
2022-09-23T23:16:43.825Z,57.50
2022-09-23T23:19:13.439Z,50.85
2022-09-23T23:21:43.526Z,51.55
2022-09-23T23:24:21.140Z,50.47
2022-09-23T23:26:47.962Z,52.53
2022-09-23T23:29:16.568Z,55.90
2022-09-23T23:31:43.775Z,59.42
2022-09-23T23:34:18.523Z,53.08
2022-09-23T23:36:45.790Z,52.10
2022-09-23T23:39:12.698Z,53.30
2022-09-23T23:41:39.621Z,56.13
2022-09-23T23:44:07.649Z,52.55
2022-09-23T23:46:34.404Z,62.65
2022-09-23T23:49:01.008Z,59.22
2022-09-23T23:51:27.865Z,58.35
2022-09-23T23:53:54.752Z,70.88
2022-09-23T23:56:23.368Z,58.53
2022-09-23T23:58:59.946Z,59.72
